Time;durP1;ratioP1;P1;durP2;ratioP2;P2;SDS_P1;SDS_P2;PMS_P1;PMS_P2;Temp;Humidity;BMP_temperature;BMP_pressure;BME280_temperature;BME280_humidity;BME280_pressure;Samples;Min_cycle;Max_cycle;Signal;HPM_P1;HPM_P2
2021/10/01 00:00:17;;;;;;;6.65;1.60;;;;;;;10.53;75.31;101467.59;680748;29;1613;-55
2021/10/01 00:00:37;;;;;;;5.97;1.73;;;;;;;10.51;75.03;101461.47;679613;28;1337;-54
2021/10/01 00:00:57;;;;;;;5.13;1.80;;;;;;;10.51;75.03;101465.84;679063;28;4545;-56
2021/10/01 00:01:18;;;;;;;4.90;1.60;;;;;;;10.48;75.08;101469.31;679665;29;1435;-56
2021/10/01 00:01:38;;;;;;;6.88;1.73;;;;;;;10.50;75.10;101461.47;678977;29;1985;-53
2021/10/01 00:01:59;;;;;;;5.57;1.87;;;;;;;10.48;74.83;101464.06;679212;29;1616;-55
2021/10/01 00:02:19;;;;;;;6.03;1.70;;;;;;;10.49;74.78;101464.94;679322;29;1907;-55
2021/10/01 00:02:41;;;;;;;5.20;1.70;;;;;;;10.47;75.20;101459.69;679118;29;1279;-54
2021/10/01 00:03:01;;;;;;;4.55;1.60;;;;;;;10.46;75.53;101460.56;679273;29;1503;-52
2021/10/01 00:03:21;;;;;;;4.70;1.60;;;;;;;10.48;75.37;101464.06;679279;29;1492;-54
2021/10/01 00:03:42;;;;;;;4.33;1.57;;;;;;;10.47;75.42;101458.84;678375;29;1651;-53
2021/10/01 00:04:02;;;;;;;4.97;1.60;;;;;;;10.46;75.44;101459.69;679357;29;4614;-56
2021/10/01 00:04:24;;;;;;;6.93;1.80;;;;;;;10.46;75.20;101460.56;680308;29;1552;-53
2021/10/01 00:04:44;;;;;;;5.30;1.73;;;;;;;10.43;75.19;101454.44;679078;29;4381;-54
2021/10/01 00:05:05;;;;;;;4.57;1.80;;;;;;;10.42;75.39;101458.78;679198;29;2465;-57
2021/10/01 00:05:26;;;;;;;4.38;1.70;;;;;;;10.41;75.77;101457.03;678540;29;1968;-55
2021/10/01 00:05:46;;;;;;;3.88;1.52;;;;;;;10.43;76.14;101452.69;678156;29;1527;-52
2021/10/01 00:06:07;;;;;;;4.80;1.60;;;;;;;10.42;76.29;101458.78;680025;29;1840;-52
2021/10/01 00:06:27;;;;;;;5.17;1.60;;;;;;;10.41;76.09;101457.03;679626;29;1090;-51
2021/10/01 00:06:48;;;;;;;5.47;1.70;;;;;;;10.39;76.32;101457.00;677869;29;4504;-53
2021/10/01 00:07:11;;;;;;;4.40;1.55;;;;;;;10.38;76.08;101462.22;679591;29;1194;-56
2021/10/01 00:07:31;;;;;;;4.95;1.60;;;;;;;10.49;75.13;101454.47;679361;29;1488;-54
2021/10/01 00:07:51;;;;;;;5.78;1.60;;;;;;;10.57;74.15;101450.19;678931;29;1313;-53
2021/10/01 00:08:12;;;;;;;6.43;1.77;;;;;;;10.67;73.71;101459.84;681770;28;3908;-55
2021/10/01 00:08:32;;;;;;;7.40;1.87;;;;;;;10.67;73.89;101448.53;681775;28;4502;-53
2021/10/01 00:08:52;;;;;;;7.63;1.90;;;;;;;10.65;74.50;101455.50;678404;29;1735;-51
2021/10/01 00:09:13;;;;;;;5.50;1.80;;;;;;;10.61;74.76;101448.50;678944;29;1842;-55
2021/10/01 00:09:34;;;;;;;4.93;1.73;;;;;;;10.59;74.51;101451.06;680215;29;1180;-52
2021/10/01 00:09:54;;;;;;;4.63;1.63;;;;;;;10.55;75.24;101455.41;679032;29;5584;-56
2021/10/01 00:10:15;;;;;;;4.67;1.70;;;;;;;10.51;75.29;101437.09;677827;29;1470;-57
2021/10/01 00:10:36;;;;;;;3.58;1.60;;;;;;;10.48;75.36;101453.63;680268;29;1054;-52
2021/10/01 00:10:57;;;;;;;5.15;1.60;;;;;;;10.45;75.34;101453.56;679148;29;1933;-55
2021/10/01 00:11:18;;;;;;;7.13;1.60;;;;;;;10.44;75.44;101451.84;679709;29;3976;-53
2021/10/01 00:11:42;;;;;;;4.50;1.55;;;;;;;10.42;76.10;101453.56;677774;29;1636;-55
2021/10/01 00:12:03;;;;;;;5.22;1.63;;;;;;;10.46;74.94;101449.25;677543;29;1399;-56
2021/10/01 00:12:24;;;;;;;6.18;1.80;;;;;;;10.43;75.47;101452.69;679649;29;1828;-56
2021/10/01 00:12:44;;;;;;;4.97;1.60;;;;;;;10.37;75.23;101444.78;680211;29;1044;-55
2021/10/01 00:13:05;;;;;;;4.95;1.40;;;;;;;10.50;74.74;101451.88;680624;28;4309;-51
2021/10/01 00:13:26;;;;;;;5.00;1.63;;;;;;;10.52;74.39;101442.31;680743;28;1457;-51
2021/10/01 00:13:46;;;;;;;5.55;1.75;;;;;;;10.50;74.62;101437.94;680139;28;1906;-55
2021/10/01 00:14:07;;;;;;;4.15;1.50;;;;;;;10.45;74.88;101447.47;681029;28;3622;-55
2021/10/01 00:14:28;;;;;;;4.60;1.70;;;;;;;10.47;74.22;101443.16;678812;29;4123;-52
2021/10/01 00:14:48;;;;;;;5.30;1.73;;;;;;;10.44;74.71;101449.22;679304;29;1651;-56
2021/10/01 00:15:09;;;;;;;4.53;1.53;;;;;;;10.39;75.62;101445.69;682828;28;1314;-53
2021/10/01 00:15:31;;;;;;;5.07;1.80;;;;;;;10.37;75.15;101445.69;682686;28;872;-55
2021/10/01 00:15:52;;;;;;;5.13;1.83;;;;;;;10.36;75.49;101443.91;680927;28;4492;-56
2021/10/01 00:16:13;;;;;;;4.43;1.75;;;;;;;10.36;75.31;101443.06;683144;28;1505;-56
2021/10/01 00:16:34;;;;;;;3.45;1.60;;;;;;;10.35;75.22;101443.91;682411;28;3097;-54
2021/10/01 00:16:55;;;;;;;4.55;1.60;;;;;;;10.33;75.60;101443.88;680269;28;1372;-56
2021/10/01 00:17:16;;;;;;;5.07;1.65;;;;;;;10.34;75.34;101442.13;679521;29;4357;-54
2021/10/01 00:17:37;;;;;;;4.90;1.67;;;;;;;10.34;75.29;101448.28;679570;29;1439;-55
2021/10/01 00:17:58;;;;;;;6.27;1.73;;;;;;;10.37;75.17;101442.16;679790;29;1517;-55
2021/10/01 00:18:19;;;;;;;4.95;1.63;;;;;;;10.42;74.97;101443.09;680136;29;1688;-54
2021/10/01 00:18:40;;;;;;;6.00;1.70;;;;;;;10.40;75.51;101439.59;679821;29;2040;-55
2021/10/01 00:19:01;;;;;;;5.18;1.77;;;;;;;10.37;74.92;101442.16;681842;28;4463;-52
2021/10/01 00:19:23;;;;;;;5.80;1.70;;;;;;;10.35;75.40;101441.31;681702;28;1471;-53
2021/10/01 00:19:43;;;;;;;4.88;1.70;;;;;;;10.36;75.44;101438.69;681423;28;1093;-53
2021/10/01 00:20:04;;;;;;;4.03;1.60;;;;;;;10.36;75.33;101443.06;681988;28;4224;-54
2021/10/01 00:20:25;;;;;;;4.80;1.73;;;;;;;10.35;75.49;101438.69;682224;28;4328;-56
2021/10/01 00:20:45;;;;;;;4.13;1.73;;;;;;;10.33;75.44;101435.16;678313;29;1976;-53
2021/10/01 00:21:06;;;;;;;4.77;1.60;;;;;;;10.33;75.62;101433.41;679830;29;1601;-51
2021/10/01 00:21:26;;;;;;;4.43;1.70;;;;;;;10.37;75.78;101436.94;680270;29;1559;-53
2021/10/01 00:21:46;;;;;;;4.93;1.70;;;;;;;10.50;74.77;101438.81;679606;29;978;-54
2021/10/01 00:22:09;;;;;;;5.00;1.70;;;;;;;10.49;74.85;101434.44;678685;29;4527;-53
2021/10/01 00:22:29;;;;;;;4.50;1.65;;;;;;;10.48;74.91;101437.03;679685;29;1425;-51
2021/10/01 00:22:49;;;;;;;4.83;1.63;;;;;;;10.48;74.62;101429.19;678960;29;1925;-54
2021/10/01 00:23:10;;;;;;;4.10;1.50;;;;;;;10.46;74.54;101431.81;679582;29;4089;-54
2021/10/01 00:23:31;;;;;;;4.57;1.50;;;;;;;10.44;74.81;101427.41;679947;29;1723;-56
2021/10/01 00:23:52;;;;;;;6.13;1.50;;;;;;;10.53;74.58;101435.34;679373;29;1850;-52
2021/10/01 00:24:13;;;;;;;4.97;1.60;;;;;;;10.65;74.02;101426.72;680238;29;1405;-54
2021/10/01 00:24:35;;;;;;;4.30;1.60;;;;;;;10.63;73.96;101426.69;679480;29;1728;-52
2021/10/01 00:24:55;;;;;;;6.25;2.20;;;;;;;10.60;73.66;101426.69;679164;28;4558;-53
2021/10/01 00:25:15;;;;;;;5.50;1.70;;;;;;;10.59;73.95;101431.91;680432;29;1895;-53
2021/10/01 00:25:36;;;;;;;4.53;1.53;;;;;;;10.61;73.95;101422.34;680846;29;1910;-55
2021/10/01 00:25:57;;;;;;;4.18;1.63;;;;;;;10.56;74.22;101425.78;680602;28;1087;-56
2021/10/01 00:26:17;;;;;;;5.82;1.80;;;;;;;10.59;74.04;101426.66;681075;28;4389;-53
2021/10/01 00:26:40;;;;;;;5.60;1.60;;;;;;;10.54;74.70;101427.50;682912;28;1837;-54
2021/10/01 00:27:02;;;;;;;3.50;1.50;;;;;;;10.55;74.39;101423.19;682722;28;1161;-55
2021/10/01 00:27:23;;;;;;;4.75;1.50;;;;;;;10.56;74.47;101425.78;680158;29;2087;-51
2021/10/01 00:27:43;;;;;;;5.67;1.63;;;;;;;10.66;73.43;101426.75;679549;29;1808;-53
2021/10/01 00:28:04;;;;;;;5.73;1.90;;;;;;;10.67;73.47;101427.59;679669;28;4530;-53
2021/10/01 00:28:24;;;;;;;5.63;1.90;;;;;;;10.59;74.76;101429.28;679819;29;1002;-54
2021/10/01 00:28:44;;;;;;;4.27;1.70;;;;;;;10.51;74.50;101422.25;678834;29;1179;-54
2021/10/01 00:29:05;;;;;;;4.22;1.50;;;;;;;10.50;74.12;101423.13;679995;29;4291;-56
2021/10/01 00:29:26;;;;;;;5.15;1.50;;;;;;;10.50;74.62;101425.72;681500;28;1828;-52
2021/10/01 00:29:47;;;;;;;4.03;1.57;;;;;;;10.52;74.47;101423.13;681754;28;1620;-52
2021/10/01 00:30:09;;;;;;;4.38;1.70;;;;;;;10.51;74.43;101422.25;682349;28;904;-56
2021/10/01 00:30:29;;;;;;;4.47;1.80;;;;;;;10.51;74.46;101426.63;678992;29;1528;-52
2021/10/01 00:30:50;;;;;;;4.05;1.42;;;;;;;10.47;74.67;101425.72;678728;28;4383;-54
2021/10/01 00:31:10;;;;;;;3.77;1.50;;;;;;;10.45;74.57;101421.34;676134;29;1378;-55
2021/10/01 00:31:31;;;;;;;5.57;1.80;;;;;;;10.41;74.84;101425.66;678254;29;1499;-55
2021/10/01 00:31:51;;;;;;;5.40;1.70;;;;;;;10.51;74.20;101416.19;679605;28;1616;-53
2021/10/01 00:32:12;;;;;;;5.70;1.70;;;;;;;10.61;72.92;101422.34;682084;28;4355;-54
2021/10/01 00:32:32;;;;;;;5.20;1.70;;;;;;;10.66;72.97;101426.75;682171;28;1517;-55
2021/10/01 00:32:53;;;;;;;4.50;1.70;;;;;;;10.72;72.83;101426.75;682465;28;1518;-53
2021/10/01 00:33:13;;;;;;;5.38;1.70;;;;;;;10.66;73.37;101421.50;682396;28;1403;-53
2021/10/01 00:33:34;;;;;;;5.20;1.67;;;;;;;10.61;73.74;101419.72;680465;29;1451;-51
2021/10/01 00:33:54;;;;;;;4.28;1.50;;;;;;;10.68;72.99;101414.53;678415;29;4742;-51
2021/10/01 00:34:15;;;;;;;3.80;1.50;;;;;;;10.64;73.20;101418.00;679698;29;1404;-51
2021/10/01 00:34:35;;;;;;;3.90;1.53;;;;;;;10.65;73.65;101419.75;678938;29;1906;-53
2021/10/01 00:34:56;;;;;;;5.15;1.70;;;;;;;10.70;72.62;101418.06;679890;29;2911;-51
2021/10/01 00:35:16;;;;;;;4.97;1.63;;;;;;;10.64;73.19;101417.13;680054;28;4176;-52
2021/10/01 00:35:37;;;;;;;4.38;1.55;;;;;;;10.64;73.93;101422.34;679133;29;1516;-55
2021/10/01 00:35:59;;;;;;;4.97;1.70;;;;;;;10.60;73.69;101425.81;679012;29;1643;-56
2021/10/01 00:36:20;;;;;;;4.45;1.70;;;;;;;10.54;73.84;101418.81;678291;29;1299;-51
2021/10/01 00:36:41;;;;;;;4.95;1.60;;;;;;;10.55;74.76;101418.81;675987;29;2313;-51
2021/10/01 00:37:02;;;;;;;5.13;1.80;;;;;;;10.71;72.85;101422.38;677409;29;4329;-51
2021/10/01 00:37:22;;;;;;;4.93;1.70;;;;;;;10.70;73.13;101422.38;677130;29;1728;-52
2021/10/01 00:37:43;;;;;;;5.07;1.70;;;;;;;10.63;73.52;101416.22;679902;29;1207;-53
2021/10/01 00:38:03;;;;;;;4.03;1.48;;;;;;;10.71;72.80;101421.53;679929;29;4552;-54
2021/10/01 00:38:24;;;;;;;4.50;1.70;;;;;;;10.81;72.27;101409.38;679242;29;1932;-55
2021/10/01 00:38:44;;;;;;;5.33;1.90;;;;;;;10.75;72.53;101420.69;679449;29;1488;-51
2021/10/01 00:39:06;;;;;;;5.80;1.70;;;;;;;10.68;72.88;101414.53;678651;29;3637;-53
2021/10/01 00:39:27;;;;;;;4.18;1.70;;;;;;;10.60;74.67;101413.59;679839;29;1521;-53
2021/10/01 00:39:51;;;;;;;5.93;1.60;;;;;;;10.59;73.72;101411.84;679142;29;4602;-56
2021/10/01 00:40:12;;;;;;;4.53;1.50;;;;;;;10.56;73.94;101420.56;679982;28;1484;-53
2021/10/01 00:40:32;;;;;;;4.45;1.50;;;;;;;10.56;73.54;101414.44;682765;28;1338;-53
2021/10/01 00:40:53;;;;;;;4.07;1.50;;;;;;;10.55;74.20;101412.72;681000;28;3360;-51
2021/10/01 00:41:13;;;;;;;4.93;1.50;;;;;;;10.52;74.13;101410.94;680168;29;4732;-56
2021/10/01 00:41:34;;;;;;;4.90;1.73;;;;;;;10.51;74.13;101411.81;679073;29;2608;-53
2021/10/01 00:41:55;;;;;;;5.45;1.73;;;;;;;10.49;74.35;101413.53;679034;29;1982;-52
2021/10/01 00:42:16;;;;;;;5.57;1.60;;;;;;;10.46;74.41;101405.66;682448;28;976;-56
2021/10/01 00:42:36;;;;;;;5.70;1.70;;;;;;;10.46;74.25;101407.41;682077;28;1586;-52
2021/10/01 00:42:56;;;;;;;4.95;1.60;;;;;;;10.44;74.35;101414.34;680993;28;4343;-55
2021/10/01 00:43:17;;;;;;;4.30;1.50;;;;;;;10.42;74.65;101406.50;682372;28;1867;-55
2021/10/01 00:43:38;;;;;;;3.80;1.40;;;;;;;10.40;74.63;101400.41;682197;28;1465;-53
2021/10/01 00:43:59;;;;;;;3.45;1.50;;;;;;;10.36;74.97;101403.84;679530;29;4433;-52
2021/10/01 00:44:19;;;;;;;3.97;1.77;;;;;;;10.34;74.79;101402.91;680321;29;1662;-55
2021/10/01 00:44:40;;;;;;;3.40;1.40;;;;;;;10.40;74.72;101403.00;680266;29;1585;-57
2021/10/01 00:45:00;;;;;;;3.87;1.57;;;;;;;10.46;74.58;101400.44;680413;29;1479;-52
2021/10/01 00:45:21;;;;;;;6.63;1.70;;;;;;;10.60;73.46;101399.66;681083;29;1204;-52
2021/10/01 00:45:41;;;;;;;4.95;1.52;;;;;;;10.55;73.81;101400.50;680940;29;1977;-53
2021/10/01 00:46:02;;;;;;;4.73;1.43;;;;;;;10.62;73.82;101404.03;680641;29;4308;-51
2021/10/01 00:46:23;;;;;;;5.90;1.60;;;;;;;10.65;73.44;101403.19;680708;28;1406;-54
2021/10/01 00:46:43;;;;;;;5.93;1.60;;;;;;;10.75;72.52;101397.16;675901;29;4089;-54
2021/10/01 00:47:04;;;;;;;4.10;1.48;;;;;;;10.68;73.00;101405.81;678559;29;4326;-56
2021/10/01 00:47:24;;;;;;;5.27;1.60;;;;;;;10.62;73.69;101404.03;676124;29;1662;-52
2021/10/01 00:47:45;;;;;;;4.97;1.50;;;;;;;10.55;73.85;101405.75;676149;29;1687;-55
2021/10/01 00:48:06;;;;;;;3.65;1.40;;;;;;;10.55;74.13;101403.13;674215;29;1810;-52
2021/10/01 00:48:26;;;;;;;3.90;1.40;;;;;;;10.59;73.81;101400.53;674298;29;1273;-56
2021/10/01 00:48:47;;;;;;;4.82;1.50;;;;;;;10.55;73.89;101402.25;673048;29;1290;-55
2021/10/01 00:49:07;;;;;;;5.00;1.60;;;;;;;10.51;74.04;101403.97;671534;29;4303;-55
2021/10/01 00:49:28;;;;;;;6.18;1.65;;;;;;;10.59;73.62;101398.78;677734;29;1208;-54
2021/10/01 00:49:48;;;;;;;6.23;1.93;;;;;;;10.55;73.35;101397.03;677381;29;4004;-55
2021/10/01 00:50:09;;;;;;;5.97;1.60;;;;;;;10.55;73.71;101400.50;679031;29;4487;-54
2021/10/01 00:50:29;;;;;;;5.73;1.50;;;;;;;10.49;73.92;101395.22;678187;29;2197;-52
2021/10/01 00:50:49;;;;;;;3.83;1.30;;;;;;;10.47;73.79;101398.72;678696;29;1638;-54
2021/10/01 00:51:10;;;;;;;3.90;1.40;;;;;;;10.46;74.11;101402.19;675725;29;1323;-53
2021/10/01 00:51:33;;;;;;;4.63;1.30;;;;;;;10.43;74.56;101408.25;675697;29;1466;-54
2021/10/01 00:51:53;;;;;;;4.53;1.60;;;;;;;10.40;74.77;101400.41;672904;29;4463;-55
2021/10/01 00:52:17;;;;;;;6.27;1.50;;;;;;;10.42;74.53;101403.03;674328;29;1611;-53
2021/10/01 00:52:37;;;;;;;4.22;1.70;;;;;;;10.41;74.53;101399.50;676037;29;1450;-55
2021/10/01 00:52:58;;;;;;;4.05;1.80;;;;;;;10.40;74.56;101400.41;678015;29;4041;-55
2021/10/01 00:53:18;;;;;;;4.57;1.60;;;;;;;10.37;74.44;101398.63;679254;29;1652;-53
2021/10/01 00:53:39;;;;;;;4.82;1.70;;;;;;;10.42;75.08;101393.44;679603;29;1916;-51
2021/10/01 00:53:59;;;;;;;4.63;1.50;;;;;;;10.44;74.28;101399.56;680381;29;1245;-55
2021/10/01 00:54:20;;;;;;;4.70;1.60;;;;;;;10.45;74.21;101403.03;678253;29;1215;-54
2021/10/01 00:54:40;;;;;;;5.17;1.80;;;;;;;10.42;74.37;101397.78;676587;29;1520;-54
2021/10/01 00:55:02;;;;;;;5.68;1.65;;;;;;;10.38;74.00;101395.16;676903;29;4471;-54
2021/10/01 00:55:23;;;;;;;3.75;1.40;;;;;;;10.39;74.47;101399.50;677478;29;1026;-53
2021/10/01 00:55:44;;;;;;;4.82;1.60;;;;;;;10.45;73.65;101390.84;676841;29;3620;-52
2021/10/01 00:56:05;;;;;;;5.65;1.50;;;;;;;10.45;73.63;101403.91;676360;29;4715;-55
2021/10/01 00:56:25;;;;;;;5.18;1.52;;;;;;;10.42;74.19;101401.28;676779;29;1395;-56
2021/10/01 00:56:47;;;;;;;4.87;1.30;;;;;;;10.51;73.44;101395.25;679023;29;1554;-55
2021/10/01 00:57:07;;;;;;;4.65;1.38;;;;;;;10.46;74.20;101399.56;682012;28;1382;-51
2021/10/01 00:57:27;;;;;;;4.72;1.50;;;;;;;10.43;73.94;101397.81;682655;28;1025;-52
2021/10/01 00:57:48;;;;;;;4.43;1.30;;;;;;;10.40;74.42;101400.41;682080;28;4500;-55
2021/10/01 00:58:08;;;;;;;4.03;1.65;;;;;;;10.36;74.25;101398.63;681611;28;1435;-55
2021/10/01 00:58:29;;;;;;;4.07;1.53;;;;;;;10.31;74.52;101398.53;679128;29;1622;-52
2021/10/01 00:58:50;;;;;;;4.53;1.50;;;;;;;10.29;74.68;101396.81;679467;29;3812;-53
2021/10/01 00:59:10;;;;;;;4.72;1.48;;;;;;;10.31;74.57;101393.31;679674;29;1301;-55
2021/10/01 00:59:31;;;;;;;5.25;1.60;;;;;;;10.34;74.35;101398.63;676289;29;1552;-52
2021/10/01 00:59:51;;;;;;;5.63;1.50;;;;;;;10.34;74.29;101397.69;675554;29;1466;-54
2021/10/01 01:00:27;;;;;;;4.97;1.50;;;;;;;10.33;74.48;101398.56;672385;29;1489;-52
2021/10/01 01:01:09;;;;;;;3.72;1.30;;;;;;;10.30;74.89;101395.91;674791;29;4608;-53
2021/10/01 01:01:30;;;;;;;5.13;1.77;;;;;;;10.31;74.52;101398.53;678383;29;1602;-56
2021/10/01 01:01:50;;;;;;;4.83;1.60;;;;;;;10.29;74.52;101395.06;678469;29;4143;-56
2021/10/01 01:02:11;;;;;;;4.37;1.40;;;;;;;10.29;74.45;101389.81;681238;28;2052;-53
2021/10/01 01:02:31;;;;;;;3.90;1.50;;;;;;;10.40;74.04;101400.41;679102;29;1797;-52
2021/10/01 01:02:54;;;;;;;4.10;1.50;;;;;;;10.48;73.75;101400.44;678799;29;1211;-54
2021/10/01 01:03:14;;;;;;;3.42;1.30;;;;;;;10.59;72.84;101396.16;679586;29;1017;-52
2021/10/01 01:03:52;;;;;;;5.43;1.53;;;;;;;10.54;73.09;101403.13;679876;29;1325;-52
2021/10/01 01:04:12;;;;;;;6.80;1.42;;;;;;;10.52;72.97;101402.22;677297;29;5061;-55
2021/10/01 01:04:33;;;;;;;5.57;1.57;;;;;;;10.48;72.95;101395.22;676694;29;4161;-52
2021/10/01 01:04:54;;;;;;;5.18;1.67;;;;;;;10.45;73.29;101395.19;675869;29;4181;-55
2021/10/01 01:05:15;;;;;;;4.87;1.50;;;;;;;10.43;73.66;101391.72;676916;29;1632;-52
2021/10/01 01:06:10;;;;;;;4.20;1.50;;;;;;;10.34;74.15;101392.47;676300;29;2002;-53
2021/10/01 01:06:43;;;;;;;4.22;1.48;;;;;;;10.29;74.47;101392.44;670009;29;1295;-55
2021/10/01 01:07:18;;;;;;;4.30;1.45;;;;;;;10.26;74.69;101389.81;666436;29;4579;-55
2021/10/01 01:07:50;;;;;;;6.28;1.48;;;;;;;10.23;74.92;101400.22;673050;29;4300;-55
2021/10/01 01:08:11;;;;;;;5.13;1.42;;;;;;;10.23;74.49;101395.88;676438;29;1705;-55
2021/10/01 01:09:04;;;;;;;5.50;1.40;;;;;;;10.22;74.51;101394.13;676997;29;1089;-56
2021/10/01 01:09:36;;;;;;;6.18;1.42;;;;;;;10.27;73.99;101383.69;678826;28;1532;-53
2021/10/01 01:10:04;;;;;;;4.65;1.60;;;;;;;10.50;72.76;101385.66;677964;29;4610;-52
2021/10/01 01:10:41;;;;;;;4.57;1.30;;;;;;;10.64;71.98;101389.22;678760;29;1311;-55
2021/10/01 01:11:15;;;;;;;5.68;1.50;;;;;;;10.77;71.46;101387.56;678170;29;2239;-52
2021/10/01 01:11:53;;;;;;;3.88;1.33;;;;;;;10.71;72.43;101383.16;678248;29;1731;-52
2021/10/01 01:12:25;;;;;;;4.32;1.50;;;;;;;10.70;71.85;101376.22;677464;29;1419;-55
2021/10/01 01:12:50;;;;;;;4.75;1.45;;;;;;;10.64;72.40;101388.38;675664;29;2861;-54
2021/10/01 01:13:13;;;;;;;4.32;1.40;;;;;;;10.60;72.92;101386.59;676112;29;5418;-55
2021/10/01 01:13:40;;;;;;;4.00;1.45;;;;;;;10.55;72.99;101381.34;678507;29;3958;-56
2021/10/01 01:14:10;;;;;;;4.97;1.50;;;;;;;10.48;73.57;101390.88;678268;29;1670;-57
2021/10/01 01:14:41;;;;;;;4.43;1.40;;;;;;;10.43;73.61;101392.56;678340;29;1714;-52
2021/10/01 01:15:11;;;;;;;5.43;1.50;;;;;;;10.41;73.93;101389.06;678644;29;1774;-53
2021/10/01 01:15:38;;;;;;;4.80;1.50;;;;;;;10.41;74.21;101383.84;677222;29;1500;-52
2021/10/01 01:16:06;;;;;;;4.28;1.40;;;;;;;10.52;72.76;101386.53;676599;29;4361;-53
2021/10/01 01:16:32;;;;;;;4.30;1.50;;;;;;;10.45;73.68;101383.00;676690;29;2539;-52
2021/10/01 01:16:56;;;;;;;5.53;1.50;;;;;;;10.38;74.00;101384.72;672362;29;4830;-56
2021/10/01 01:17:22;;;;;;;4.30;1.35;;;;;;;10.34;73.87;101384.63;673449;29;1788;-56
2021/10/01 01:17:48;;;;;;;5.70;1.60;;;;;;;10.29;73.96;101383.72;677120;29;1708;-51
2021/10/01 01:18:23;;;;;;;3.67;1.30;;;;;;;10.48;72.48;101385.66;680831;29;1454;-52
2021/10/01 01:18:49;;;;;;;5.57;1.90;;;;;;;10.41;73.03;101380.34;681015;29;1934;-52
2021/10/01 01:19:36;;;;;;;4.20;1.30;;;;;;;10.42;73.95;101379.50;678200;29;6398;-55
2021/10/01 01:19:57;;;;;;;5.28;1.35;;;;;;;10.38;73.51;101379.47;675935;29;1548;-53
2021/10/01 01:20:26;;;;;;;5.30;1.33;;;;;;;10.51;72.58;101384.81;676216;29;2012;-50
2021/10/01 01:20:50;;;;;;;4.60;1.40;;;;;;;10.49;72.89;101376.91;675971;29;1910;-53
2021/10/01 01:21:27;;;;;;;4.53;1.50;;;;;;;10.66;71.60;101374.44;676095;29;1582;-51
2021/10/01 01:22:01;;;;;;;4.60;1.58;;;;;;;10.57;72.53;101370.00;677089;29;4358;-54
2021/10/01 01:22:45;;;;;;;4.03;1.60;;;;;;;10.46;73.23;101376.91;674734;29;4015;-55
2021/10/01 01:23:24;;;;;;;4.43;1.30;;;;;;;10.42;73.82;101369.91;680354;28;1414;-55
2021/10/01 01:23:59;;;;;;;4.65;1.45;;;;;;;10.34;72.86;101376.78;680744;28;1259;-52
2021/10/01 01:24:46;;;;;;;4.55;1.58;;;;;;;10.30;73.56;101372.41;679096;29;1443;-53
2021/10/01 01:26:17;;;;;;;4.03;1.35;;;;;;;10.24;73.82;101370.59;678367;29;5049;-54
2021/10/01 01:27:08;;;;;;;4.13;1.40;;;;;;;10.30;73.58;101361.94;673525;29;1603;-52
2021/10/01 01:27:57;;;;;;;4.75;1.30;;;;;;;10.28;74.11;101371.53;676330;29;1305;-51
2021/10/01 01:28:47;;;;;;;4.20;1.50;;;;;;;10.52;72.60;101371.75;676847;29;5164;-51
2021/10/01 01:29:24;;;;;;;5.57;1.40;;;;;;;10.49;72.68;101369.06;673262;29;1721;-53
2021/10/01 01:29:58;;;;;;;5.45;1.40;;;;;;;10.42;73.14;101364.69;673897;29;1695;-54
2021/10/01 01:30:21;;;;;;;3.92;1.20;;;;;;;10.41;73.00;101369.91;674576;29;1604;-55
2021/10/01 01:30:59;;;;;;;3.42;1.40;;;;;;;10.31;73.82;101367.19;675593;29;4448;-51
2021/10/01 01:31:38;;;;;;;4.55;1.35;;;;;;;10.40;73.39;101363.81;673220;29;1613;-52
2021/10/01 01:31:59;;;;;;;3.65;1.23;;;;;;;10.54;71.80;101364.75;675098;29;2441;-55
2021/10/01 01:32:22;;;;;;;4.55;1.20;;;;;;;10.50;72.05;101351.69;675820;29;2034;-53
2021/10/01 01:32:47;;;;;;;4.82;1.40;;;;;;;10.44;72.92;101367.31;675928;29;1433;-53
2021/10/01 01:33:14;;;;;;;5.07;1.48;;;;;;;10.37;73.16;101362.03;676222;29;1445;-55
2021/10/01 01:33:38;;;;;;;5.60;1.30;;;;;;;10.42;73.04;101369.03;672701;29;1533;-55
2021/10/01 01:34:01;;;;;;;5.05;1.30;;;;;;;10.40;73.29;101363.81;675070;29;4503;-55
2021/10/01 01:34:37;;;;;;;4.18;1.30;;;;;;;10.41;73.43;101362.06;678704;29;4005;-55
2021/10/01 01:35:19;;;;;;;3.75;1.40;;;;;;;10.30;73.65;101365.44;678568;29;2003;-55
2021/10/01 01:35:41;;;;;;;5.05;1.48;;;;;;;10.26;73.75;101358.44;680483;29;1719;-52
2021/10/01 01:36:02;;;;;;;4.38;1.40;;;;;;;10.24;74.09;101357.53;681473;29;1751;-50
2021/10/01 01:36:29;;;;;;;4.47;1.52;;;;;;;10.38;72.79;101366.41;680876;29;1857;-51
2021/10/01 01:36:54;;;;;;;4.78;1.33;;;;;;;10.42;72.66;101359.44;680026;28;4480;-55
2021/10/01 01:37:22;;;;;;;4.15;1.30;;;;;;;10.38;73.07;101360.28;681572;28;3974;-55
2021/10/01 01:37:56;;;;;;;4.10;1.20;;;;;;;10.44;72.96;101354.22;680708;29;1543;-53
2021/10/01 01:38:22;;;;;;;4.32;1.35;;;;;;;10.39;73.02;101362.06;677884;29;1989;-54
2021/10/01 01:38:49;;;;;;;3.67;1.20;;;;;;;10.36;72.94;101362.91;680777;29;1515;-54
2021/10/01 01:39:12;;;;;;;5.10;1.40;;;;;;;10.56;71.71;101360.44;681046;29;4002;-52
2021/10/01 01:39:36;;;;;;;4.28;1.50;;;;;;;10.70;71.07;101362.25;681177;28;1720;-53
2021/10/01 01:39:58;;;;;;;3.95;1.40;;;;;;;10.65;71.28;101353.53;679987;28;4366;-51
2021/10/01 01:40:22;;;;;;;3.92;1.38;;;;;;;10.56;71.74;101356.94;679008;29;3961;-51
2021/10/01 01:40:48;;;;;;;4.65;1.30;;;;;;;10.48;72.40;101356.00;675390;29;1858;-55
2021/10/01 01:41:11;;;;;;;3.88;1.40;;;;;;;10.42;73.18;101359.44;675886;29;1746;-53
2021/10/01 01:41:33;;;;;;;3.78;1.30;;;;;;;10.41;72.96;101352.47;673557;29;1907;-55
2021/10/01 01:41:56;;;;;;;4.40;1.40;;;;;;;10.38;72.86;101357.69;673598;29;1795;-55
2021/10/01 01:42:18;;;;;;;3.95;1.45;;;;;;;10.33;73.32;101356.75;676056;29;1611;-54
2021/10/01 01:42:41;;;;;;;3.22;1.40;;;;;;;10.32;73.62;101349.78;675990;29;1405;-54
2021/10/01 01:43:06;;;;;;;4.40;1.40;;;;;;;10.33;73.37;101348.91;676881;29;4519;-55
2021/10/01 01:43:28;;;;;;;4.38;1.40;;;;;;;10.30;73.50;101349.78;676234;29;4494;-55
2021/10/01 01:43:53;;;;;;;4.20;1.48;;;;;;;10.28;73.43;101345.38;679355;29;1560;-51
2021/10/01 01:44:15;;;;;;;3.72;1.40;;;;;;;10.25;73.54;101355.81;678727;29;1717;-53
2021/10/01 01:44:37;;;;;;;3.55;1.50;;;;;;;10.26;73.18;101348.00;679614;29;1276;-53
2021/10/01 01:44:59;;;;;;;4.68;1.50;;;;;;;10.25;73.55;101348.00;680255;29;2040;-51
2021/10/01 01:45:19;;;;;;;4.18;1.52;;;;;;;10.22;73.76;101347.09;680741;28;1270;-53
2021/10/01 01:45:44;;;;;;;4.95;1.45;;;;;;;10.30;73.48;101344.53;677726;29;1978;-53
2021/10/01 01:46:06;;;;;;;3.83;1.30;;;;;;;10.28;73.74;101351.47;677902;29;4514;-51
2021/10/01 01:46:27;;;;;;;3.80;1.30;;;;;;;10.22;74.93;101341.84;678240;29;4291;-51
2021/10/01 01:46:59;;;;;;;4.60;1.33;;;;;;;10.20;74.07;101347.94;678210;29;2409;-51
2021/10/01 01:47:20;;;;;;;4.40;1.30;;;;;;;10.37;73.27;101342.84;677909;29;1587;-51
2021/10/01 01:47:42;;;;;;;4.38;1.40;;;;;;;10.44;72.66;101343.78;680836;29;1316;-53
2021/10/01 01:48:07;;;;;;;3.70;1.27;;;;;;;10.42;72.78;101346.38;680084;29;1710;-56
2021/10/01 01:48:30;;;;;;;4.38;1.25;;;;;;;10.57;71.88;101340.38;681073;29;1630;-53
2021/10/01 01:48:51;;;;;;;3.55;1.30;;;;;;;10.63;71.57;101342.16;681529;28;4369;-54
2021/10/01 01:49:14;;;;;;;4.03;1.30;;;;;;;10.55;72.24;101340.38;680002;29;3591;-54
2021/10/01 01:49:35;;;;;;;3.38;1.35;;;;;;;10.51;72.47;101345.59;679633;29;4299;-55
2021/10/01 01:49:58;;;;;;;4.95;1.30;;;;;;;10.51;72.25;101337.75;678723;29;1508;-51
2021/10/01 01:50:19;;;;;;;6.38;1.45;;;;;;;10.47;72.22;101346.44;677514;29;1496;-55
2021/10/01 01:50:39;;;;;;;4.80;1.38;;;;;;;10.43;72.76;101348.13;673877;29;1364;-54
2021/10/01 01:51:02;;;;;;;3.45;1.30;;;;;;;10.49;72.31;101345.56;679682;29;1803;-52
2021/10/01 01:51:23;;;;;;;4.32;1.40;;;;;;;10.43;72.91;101340.28;677035;29;1269;-52
2021/10/01 01:51:44;;;;;;;5.10;1.38;;;;;;;10.45;72.71;101350.75;678603;29;1514;-52
2021/10/01 01:52:06;;;;;;;4.70;1.30;;;;;;;10.40;72.94;101345.50;676978;29;4470;-53
2021/10/01 01:52:29;;;;;;;3.67;1.40;;;;;;;10.47;72.47;101346.44;676515;29;4042;-54
2021/10/01 01:52:52;;;;;;;5.13;1.40;;;;;;;10.51;72.18;101341.22;675739;29;2349;-51
2021/10/01 01:53:15;;;;;;;4.80;1.23;;;;;;;10.55;71.84;101335.16;675894;29;1709;-51
2021/10/01 01:53:37;;;;;;;4.35;1.13;;;;;;;10.66;71.25;101347.41;673214;29;1376;-55